createdAt,value
2018-03-16T00:00:02.731Z,8.64
2018-03-16T00:02:31.008Z,8.66
2018-03-16T00:04:59.272Z,8.65
2018-03-16T00:07:27.697Z,8.68
2018-03-16T00:09:55.952Z,8.70
2018-03-16T00:12:24.235Z,8.61
2018-03-16T00:14:52.541Z,8.64
2018-03-16T00:17:20.816Z,8.63
2018-03-16T00:19:49.864Z,8.73
2018-03-16T00:22:31.656Z,8.63
2018-03-16T00:24:59.954Z,8.60
2018-03-16T00:27:29.941Z,8.70
2018-03-16T00:29:58.218Z,8.75
2018-03-16T00:32:26.508Z,8.72
2018-03-16T00:34:54.779Z,8.72
2018-03-16T00:37:23.050Z,8.76
2018-03-16T00:39:51.324Z,8.74
2018-03-16T00:42:19.576Z,8.68
2018-03-16T00:44:47.871Z,8.77
2018-03-16T00:47:16.338Z,8.75
2018-03-16T00:49:44.775Z,8.75
2018-03-16T00:52:13.074Z,8.74
2018-03-16T00:54:42.123Z,8.69
2018-03-16T00:57:10.383Z,8.70
2018-03-16T00:59:38.872Z,8.69
2018-03-16T01:02:07.138Z,8.71
2018-03-16T01:04:35.414Z,8.71
2018-03-16T01:07:03.688Z,8.66
2018-03-16T01:09:31.969Z,8.71
2018-03-16T01:12:00.284Z,8.76
2018-03-16T01:14:30.158Z,8.69
2018-03-16T01:16:58.441Z,8.69
2018-03-16T01:19:26.719Z,8.72
2018-03-16T01:21:55.018Z,8.76
2018-03-16T01:24:24.161Z,8.74
2018-03-16T01:26:52.684Z,8.79
2018-03-16T01:29:21.127Z,8.77
2018-03-16T01:31:49.445Z,8.76
2018-03-16T01:34:17.717Z,8.75
2018-03-16T01:36:46.778Z,8.71
2018-03-16T01:39:15.092Z,8.70
2018-03-16T01:41:44.117Z,8.69
2018-03-16T01:44:12.395Z,8.61
2018-03-16T01:46:40.650Z,8.65
2018-03-16T01:49:09.765Z,8.66
2018-03-16T01:51:38.171Z,8.65
2018-03-16T01:54:06.439Z,8.59
2018-03-16T01:56:34.710Z,8.61
2018-03-16T01:59:02.968Z,8.59
2018-03-16T02:01:31.238Z,8.53
2018-03-16T02:03:59.512Z,8.45
2018-03-16T02:06:27.783Z,8.44
2018-03-16T02:08:56.053Z,8.44
2018-03-16T02:11:24.306Z,8.38
2018-03-16T02:13:53.341Z,8.36
2018-03-16T02:16:21.613Z,8.32
2018-03-16T02:18:49.992Z,8.44
2018-03-16T02:21:18.249Z,8.39
2018-03-16T02:23:46.525Z,8.37
2018-03-16T02:26:14.790Z,8.32
2018-03-16T02:28:43.092Z,8.36
2018-03-16T02:31:11.435Z,8.42
2018-03-16T02:33:40.466Z,8.34
2018-03-16T02:36:08.738Z,8.41
2018-03-16T02:38:36.993Z,8.34
2018-03-16T02:41:05.264Z,8.34
2018-03-16T02:43:33.539Z,8.37
2018-03-16T02:46:01.795Z,8.40
2018-03-16T02:48:30.860Z,8.38
2018-03-16T02:50:59.166Z,8.42
2018-03-16T02:53:28.228Z,8.35
2018-03-16T02:55:56.544Z,8.29
2018-03-16T02:58:25.592Z,8.29
2018-03-16T03:00:53.851Z,8.23
2018-03-16T03:03:22.144Z,8.31
2018-03-16T03:05:50.397Z,8.25
2018-03-16T03:08:18.702Z,8.29
2018-03-16T03:10:47.025Z,8.19
2018-03-16T03:13:16.035Z,8.22
2018-03-16T03:15:44.310Z,8.13
2018-03-16T03:18:12.601Z,8.11
2018-03-16T03:20:40.862Z,8.05
2018-03-16T03:23:09.137Z,8.04
2018-03-16T03:25:37.415Z,8.02
2018-03-16T03:28:05.795Z,8.07
2018-03-16T03:30:34.072Z,8.04
2018-03-16T03:33:02.919Z,8.10
2018-03-16T03:35:31.988Z,8.19
2018-03-16T03:38:00.255Z,8.17
2018-03-16T03:40:30.068Z,8.12
2018-03-16T03:42:58.338Z,8.15
2018-03-16T03:45:26.598Z,8.09
2018-03-16T03:47:55.579Z,8.12
2018-03-16T03:50:23.847Z,8.07
2018-03-16T03:52:52.138Z,8.07
2018-03-16T03:55:20.408Z,8.11
2018-03-16T03:57:48.659Z,8.11
2018-03-16T04:00:16.937Z,8.11
2018-03-16T04:02:45.210Z,8.13
2018-03-16T04:05:13.509Z,8.09
2018-03-16T04:07:41.765Z,8.20
2018-03-16T04:10:10.206Z,8.17
2018-03-16T04:12:38.459Z,8.18
2018-03-16T04:15:06.748Z,8.16
2018-03-16T04:17:35.063Z,8.23
2018-03-16T04:20:03.364Z,8.17
2018-03-16T04:22:31.634Z,8.11
2018-03-16T04:24:59.912Z,8.12
2018-03-16T04:27:28.197Z,8.21
2018-03-16T04:29:56.482Z,8.19
2018-03-16T04:32:24.745Z,8.09
2018-03-16T04:34:53.122Z,8.09
2018-03-16T04:37:21.402Z,8.11
2018-03-16T04:39:49.679Z,8.09
2018-03-16T04:42:17.940Z,7.99
2018-03-16T04:44:46.208Z,8.00
2018-03-16T04:47:14.480Z,8.03
2018-03-16T04:49:42.760Z,7.99
2018-03-16T04:52:11.018Z,8.06
2018-03-16T04:54:39.292Z,8.14
2018-03-16T04:57:07.577Z,8.07
2018-03-16T04:59:35.859Z,7.98
2018-03-16T05:02:04.136Z,8.00
2018-03-16T05:04:32.439Z,8.02
2018-03-16T05:07:00.886Z,8.00
2018-03-16T05:09:29.338Z,7.98
2018-03-16T05:11:58.482Z,8.09
2018-03-16T05:14:26.757Z,8.07
2018-03-16T05:16:55.078Z,8.08
2018-03-16T05:19:24.166Z,8.13
2018-03-16T05:21:53.206Z,8.09
2018-03-16T05:24:21.496Z,8.10
2018-03-16T05:26:49.763Z,8.09
2018-03-16T05:29:18.155Z,8.14
2018-03-16T05:31:46.454Z,8.08
2018-03-16T05:34:14.951Z,8.05
2018-03-16T05:36:43.988Z,8.10
2018-03-16T05:39:12.269Z,8.11
2018-03-16T05:41:40.760Z,8.19
2018-03-16T05:44:09.875Z,8.21
2018-03-16T05:46:38.193Z,8.25
2018-03-16T05:49:06.535Z,8.19
2018-03-16T05:51:34.836Z,8.14
2018-03-16T05:54:03.126Z,8.25
2018-03-16T05:56:31.408Z,8.29
2018-03-16T05:58:59.910Z,8.46
2018-03-16T06:01:28.604Z,8.42
2018-03-16T06:03:56.955Z,8.46
2018-03-16T06:06:25.219Z,8.46
2018-03-16T06:08:53.496Z,8.43
2018-03-16T06:11:21.811Z,8.55
2018-03-16T06:13:50.098Z,8.53
2018-03-16T06:16:18.523Z,8.57
2018-03-16T06:18:47.048Z,8.61
2018-03-16T06:21:15.411Z,8.58
2018-03-16T06:23:43.671Z,8.58
2018-03-16T06:26:11.946Z,8.60
2018-03-16T06:28:40.231Z,8.54
2018-03-16T06:31:08.500Z,8.54
2018-03-16T06:33:36.763Z,8.50
2018-03-16T06:36:05.084Z,8.51
2018-03-16T06:38:33.340Z,8.51
2018-03-16T06:41:02.426Z,8.50
2018-03-16T06:43:31.548Z,8.61
2018-03-16T06:46:00.658Z,8.61
2018-03-16T06:48:29.688Z,8.61
2018-03-16T06:50:58.062Z,8.59
2018-03-16T06:53:26.320Z,8.58
2018-03-16T06:55:54.695Z,8.64
2018-03-16T06:58:23.065Z,8.63
2018-03-16T07:00:52.098Z,8.54
2018-03-16T07:03:20.406Z,8.52
2018-03-16T07:05:48.654Z,8.48
2018-03-16T07:08:16.914Z,8.47
2018-03-16T07:10:45.200Z,8.53
2018-03-16T07:13:13.484Z,8.50
2018-03-16T07:15:41.774Z,8.43
2018-03-16T07:18:10.071Z,8.41
2018-03-16T07:20:40.069Z,8.39
2018-03-16T07:23:08.451Z,8.36
2018-03-16T07:25:36.775Z,8.51
2018-03-16T07:28:05.059Z,8.41
2018-03-16T07:30:33.349Z,8.41
2018-03-16T07:33:02.192Z,8.45
2018-03-16T07:35:30.508Z,8.36
2018-03-16T07:37:58.807Z,8.37
2018-03-16T07:40:27.077Z,8.44
2018-03-16T07:42:55.478Z,8.47
2018-03-16T07:45:30.099Z,8.52
2018-03-16T07:47:59.923Z,8.52
2018-03-16T07:50:28.236Z,8.39
2018-03-16T07:52:56.524Z,8.37
2018-03-16T07:55:24.946Z,8.37
2018-03-16T07:57:54.009Z,8.37
2018-03-16T08:00:22.656Z,8.39
2018-03-16T08:02:50.978Z,8.44
2018-03-16T08:05:19.440Z,8.43
2018-03-16T08:07:47.760Z,8.47
2018-03-16T08:10:16.787Z,8.48
2018-03-16T08:12:45.240Z,8.45
2018-03-16T08:15:14.283Z,8.40
2018-03-16T08:17:42.682Z,8.40
2018-03-16T08:20:10.976Z,8.33
2018-03-16T08:22:40.057Z,8.46
2018-03-16T08:25:09.165Z,8.42
2018-03-16T08:27:38.208Z,8.34
2018-03-16T08:30:06.532Z,8.45
2018-03-16T08:32:35.911Z,8.47
2018-03-16T08:35:04.251Z,8.45
2018-03-16T08:37:32.524Z,8.37
2018-03-16T08:40:00.811Z,8.39
2018-03-16T08:42:29.096Z,8.45
2018-03-16T08:44:57.370Z,8.52
2018-03-16T08:47:25.672Z,8.47
2018-03-16T08:49:53.961Z,8.43
2018-03-16T08:52:23.008Z,8.38
2018-03-16T08:54:51.372Z,8.27
2018-03-16T08:57:19.623Z,8.43
2018-03-16T08:59:47.990Z,8.42
2018-03-16T09:02:16.237Z,8.25
2018-03-16T09:04:44.633Z,8.29
2018-03-16T09:07:13.680Z,8.38
2018-03-16T09:09:41.957Z,8.32
2018-03-16T09:12:10.223Z,8.34
2018-03-16T09:14:38.512Z,8.33
2018-03-16T09:17:06.894Z,8.51
2018-03-16T09:19:35.420Z,8.52
2018-03-16T09:22:04.466Z,8.52
2018-03-16T09:24:32.752Z,8.55
2018-03-16T09:27:01.057Z,8.53
2018-03-16T09:29:30.203Z,8.56
2018-03-16T09:31:58.484Z,8.64
2018-03-16T09:34:26.833Z,8.58
2018-03-16T09:36:55.098Z,8.64
2018-03-16T09:39:23.563Z,8.73
2018-03-16T09:41:51.831Z,8.77
2018-03-16T09:44:20.923Z,8.73
2018-03-16T09:46:49.223Z,8.59
2018-03-16T09:49:17.478Z,8.79
2018-03-16T09:51:46.524Z,8.80
2018-03-16T09:54:14.792Z,8.84
2018-03-16T09:56:43.119Z,8.79
2018-03-16T09:59:12.950Z,8.79
2018-03-16T10:01:41.342Z,8.76
2018-03-16T10:04:09.629Z,8.74
2018-03-16T10:06:37.973Z,8.69
2018-03-16T10:09:06.247Z,8.79
2018-03-16T10:11:34.667Z,8.86
2018-03-16T10:14:02.919Z,8.85
2018-03-16T10:16:31.192Z,8.86
2018-03-16T10:18:59.447Z,8.90
2018-03-16T10:21:28.775Z,8.86
2018-03-16T10:23:57.797Z,8.91
2018-03-16T10:26:26.359Z,8.99
2018-03-16T10:28:54.640Z,9.07
2018-03-16T10:31:22.905Z,9.04
2018-03-16T10:33:51.184Z,9.13
2018-03-16T10:36:22.726Z,9.21
2018-03-16T10:38:51.001Z,9.28
2018-03-16T10:41:19.274Z,9.37
2018-03-16T10:43:47.555Z,9.33
2018-03-16T10:46:15.810Z,9.37
2018-03-16T10:48:44.101Z,9.33
2018-03-16T10:51:12.369Z,9.18
2018-03-16T10:53:40.795Z,9.17
2018-03-16T10:56:09.041Z,9.22
2018-03-16T10:58:37.318Z,9.18
2018-03-16T11:01:11.386Z,9.20
2018-03-16T11:03:45.434Z,9.33
2018-03-16T11:06:20.779Z,9.33
2018-03-16T11:08:50.077Z,9.25
2018-03-16T11:11:18.779Z,9.26
2018-03-16T11:13:47.886Z,9.31
2018-03-16T11:16:17.082Z,9.37
2018-03-16T11:18:45.961Z,9.41
2018-03-16T11:21:14.912Z,9.47
2018-03-16T11:23:43.990Z,9.55
2018-03-16T11:26:13.346Z,9.62
2018-03-16T11:28:42.043Z,9.64
2018-03-16T11:31:11.196Z,9.67
2018-03-16T11:33:40.959Z,9.84
2018-03-16T11:39:10.514Z,10.04
2018-03-16T11:41:39.264Z,10.07
2018-03-16T11:44:08.516Z,10.01
2018-03-16T11:46:37.913Z,10.07
2018-03-16T11:49:06.718Z,10.11
2018-03-16T11:51:35.811Z,10.16
2018-03-16T11:54:06.445Z,10.12
2018-03-16T11:56:35.214Z,10.14
2018-03-16T11:59:04.156Z,10.14
2018-03-16T12:01:33.300Z,10.11
2018-03-16T12:04:01.664Z,10.11
2018-03-16T12:06:30.266Z,10.09
2018-03-16T12:08:58.668Z,10.08
2018-03-16T12:11:28.463Z,10.03
2018-03-16T12:13:57.928Z,10.08
2018-03-16T12:16:26.840Z,10.25
2018-03-16T12:18:55.161Z,10.25
2018-03-16T12:21:23.489Z,10.40
2018-03-16T12:23:52.632Z,10.56
2018-03-16T12:26:24.248Z,10.70
2018-03-16T12:29:02.705Z,10.89
2018-03-16T12:31:32.740Z,11.05
2018-03-16T12:34:01.486Z,11.15
2018-03-16T12:36:31.726Z,11.04
2018-03-16T12:39:05.902Z,11.11
2018-03-16T12:41:35.705Z,11.06
2018-03-16T12:44:04.852Z,11.06
2018-03-16T12:46:34.255Z,11.11
2018-03-16T12:49:02.808Z,11.15
2018-03-16T12:51:31.270Z,11.33
2018-03-16T12:54:00.738Z,11.34
2018-03-16T12:56:29.476Z,11.43
2018-03-16T12:58:58.079Z,11.37
2018-03-16T13:01:26.915Z,11.32
2018-03-16T13:03:55.273Z,11.30
2018-03-16T13:06:23.905Z,11.29
2018-03-16T13:08:52.366Z,11.27
2018-03-16T13:11:21.000Z,11.32
2018-03-16T13:13:49.556Z,11.38
2018-03-16T13:16:18.157Z,11.48
2018-03-16T13:18:47.675Z,12.05
2018-03-16T13:21:17.392Z,12.41
2018-03-16T13:23:46.730Z,12.50
2018-03-16T13:26:15.386Z,12.55
2018-03-16T13:28:43.898Z,12.53
2018-03-16T13:31:12.599Z,12.65
2018-03-16T13:33:41.701Z,12.76
2018-03-16T13:36:10.179Z,12.69
2018-03-16T13:38:39.189Z,12.64
2018-03-16T13:41:08.520Z,12.87
2018-03-16T13:43:37.857Z,13.04
2018-03-16T13:46:08.998Z,13.30
2018-03-16T13:48:39.920Z,13.40
2018-03-16T13:51:09.588Z,13.09
2018-03-16T13:53:40.311Z,12.88
2018-03-16T13:56:11.310Z,12.89
2018-03-16T13:58:42.143Z,12.62
2018-03-16T14:01:13.383Z,12.43
2018-03-16T14:03:43.116Z,12.30
2018-03-16T14:06:11.871Z,11.74
2018-03-16T14:08:40.744Z,11.19
2018-03-16T14:11:10.471Z,11.06
2018-03-16T14:13:39.460Z,11.02
2018-03-16T14:16:08.665Z,11.10
2018-03-16T14:18:37.090Z,11.19
2018-03-16T14:21:05.922Z,11.20
2018-03-16T14:23:34.505Z,11.32
2018-03-16T14:26:05.025Z,11.27
2018-03-16T14:28:33.755Z,11.39
2018-03-16T14:31:04.043Z,11.57
2018-03-16T14:33:34.207Z,11.88
2018-03-16T14:36:03.748Z,11.83
2018-03-16T14:38:32.451Z,11.97
2018-03-16T14:41:01.108Z,12.03
2018-03-16T14:43:29.936Z,12.13
2018-03-16T14:46:00.232Z,12.12
2018-03-16T14:48:29.613Z,12.28
2018-03-16T14:50:58.318Z,12.26
2018-03-16T14:53:27.907Z,12.37
2018-03-16T14:55:56.837Z,12.51
2018-03-16T14:58:25.789Z,12.81
2018-03-16T15:00:55.087Z,12.93
2018-03-16T15:03:25.078Z,13.03
2018-03-16T15:05:55.900Z,13.04
2018-03-16T15:08:25.064Z,12.93
2018-03-16T15:10:53.648Z,12.70
2018-03-16T15:13:23.077Z,12.59
2018-03-16T15:15:54.022Z,12.41
2018-03-16T15:18:23.303Z,12.42
2018-03-16T15:20:51.998Z,12.29
2018-03-16T15:23:20.970Z,12.31
2018-03-16T15:25:49.708Z,12.27
2018-03-16T15:28:19.277Z,12.24
2018-03-16T15:30:47.982Z,12.31
2018-03-16T15:33:16.791Z,12.23
2018-03-16T15:35:46.003Z,12.16
2018-03-16T15:38:14.572Z,12.17
2018-03-16T15:40:44.483Z,12.13
2018-03-16T15:43:13.039Z,12.10
2018-03-16T15:45:42.078Z,12.12
2018-03-16T15:48:11.498Z,12.11
2018-03-16T15:50:40.336Z,12.07
2018-03-16T15:53:10.883Z,12.01
2018-03-16T15:55:43.361Z,12.05
2018-03-16T15:58:13.441Z,12.04
2018-03-16T16:00:43.181Z,12.03
2018-03-16T16:03:12.562Z,12.04
2018-03-16T16:05:42.985Z,11.98
2018-03-16T16:08:13.156Z,11.96
2018-03-16T16:10:52.913Z,11.89
2018-03-16T16:13:22.811Z,11.81
2018-03-16T16:15:55.243Z,11.76
2018-03-16T16:18:25.256Z,11.74
2018-03-16T16:20:54.458Z,11.72
2018-03-16T16:23:23.756Z,11.77
2018-03-16T16:25:52.269Z,11.69
2018-03-16T16:28:21.007Z,11.64
2018-03-16T16:30:50.672Z,11.66
2018-03-16T16:33:19.024Z,11.68
2018-03-16T16:35:47.783Z,11.60
2018-03-16T16:38:16.184Z,11.49
2018-03-16T16:40:45.718Z,11.50
2018-03-16T16:43:14.706Z,11.34
2018-03-16T16:45:45.811Z,11.35
2018-03-16T16:48:14.474Z,11.27
2018-03-16T16:50:43.635Z,11.16
2018-03-16T16:53:12.221Z,11.02
2018-03-16T16:55:41.963Z,10.98
2018-03-16T16:58:11.603Z,10.97
2018-03-16T17:00:41.345Z,10.92
2018-03-16T17:03:10.768Z,10.87
2018-03-16T17:05:40.702Z,10.83
2018-03-16T17:08:09.533Z,10.84
2018-03-16T17:10:39.256Z,10.79
2018-03-16T17:13:08.037Z,10.73
2018-03-16T17:15:36.756Z,10.73
2018-03-16T17:18:05.362Z,10.69
2018-03-16T17:20:34.283Z,10.65
2018-03-16T17:23:03.499Z,10.72
2018-03-16T17:25:32.857Z,11.00
2018-03-16T17:28:01.504Z,10.85
2018-03-16T17:30:30.186Z,10.80
2018-03-16T17:32:59.176Z,10.65
2018-03-16T17:35:28.247Z,10.54
2018-03-16T17:37:56.626Z,10.43
2018-03-16T17:40:26.154Z,10.23
2018-03-16T17:42:55.420Z,10.03
2018-03-16T17:45:24.426Z,9.88
2018-03-16T17:47:53.049Z,9.72
2018-03-16T17:50:22.920Z,9.70
2018-03-16T17:52:51.557Z,9.60
2018-03-16T17:55:21.378Z,9.51
2018-03-16T17:57:49.955Z,9.43
2018-03-16T18:00:18.612Z,9.54
2018-03-16T18:02:47.009Z,9.50
2018-03-16T18:05:16.352Z,9.52
2018-03-16T18:07:45.050Z,9.58
2018-03-16T18:10:13.586Z,9.52
2018-03-16T18:12:42.543Z,9.38
2018-03-16T18:15:11.178Z,9.38
2018-03-16T18:17:40.801Z,9.39
2018-03-16T18:20:09.603Z,9.32
2018-03-16T18:22:38.170Z,9.28
2018-03-16T18:25:06.583Z,9.41
2018-03-16T18:27:35.253Z,9.39
2018-03-16T18:30:04.236Z,9.31
2018-03-16T18:32:33.401Z,9.20
2018-03-16T18:35:01.958Z,9.20
2018-03-16T18:37:30.758Z,9.15
2018-03-16T18:39:59.399Z,9.24
2018-03-16T18:42:28.992Z,9.13
2018-03-16T18:44:58.198Z,9.11
2018-03-16T18:47:27.063Z,9.14
2018-03-16T18:49:56.993Z,9.16
2018-03-16T18:52:25.374Z,9.24
2018-03-16T18:54:54.633Z,9.19
2018-03-16T18:57:23.226Z,9.28
2018-03-16T18:59:53.280Z,9.24
2018-03-16T19:02:22.870Z,9.18
2018-03-16T19:04:51.600Z,9.24
2018-03-16T19:07:21.842Z,9.26
2018-03-16T19:09:50.437Z,9.33
2018-03-16T19:12:19.130Z,9.32
2018-03-16T19:14:47.876Z,9.29
2018-03-16T19:17:18.187Z,9.35
2018-03-16T19:19:46.956Z,9.42
2018-03-16T19:22:15.584Z,9.52
2018-03-16T19:24:44.505Z,9.52
2018-03-16T19:27:13.219Z,9.60
2018-03-16T19:29:42.523Z,9.67
2018-03-16T19:32:11.481Z,9.56
2018-03-16T19:34:40.090Z,9.53
2018-03-16T19:37:08.779Z,9.68
2018-03-16T19:39:37.433Z,9.74
2018-03-16T19:42:06.335Z,9.67
2018-03-16T19:44:35.948Z,9.48
2018-03-16T19:47:04.795Z,9.59
2018-03-16T19:49:34.067Z,9.62
2018-03-16T19:52:02.807Z,9.74
2018-03-16T19:54:31.516Z,9.57
2018-03-16T19:57:00.350Z,9.42
2018-03-16T19:59:29.159Z,9.42
2018-03-16T20:01:59.181Z,9.38
2018-03-16T20:04:28.635Z,9.64
2018-03-16T20:06:57.594Z,9.40
2018-03-16T20:09:26.728Z,9.49
2018-03-16T20:11:55.570Z,9.54
2018-03-16T20:14:24.878Z,9.39
2018-03-16T20:16:54.809Z,9.63
2018-03-16T20:19:23.833Z,9.54
2018-03-16T20:21:53.010Z,9.70
2018-03-16T20:24:22.150Z,9.57
2018-03-16T20:26:51.151Z,9.56
2018-03-16T20:29:19.621Z,9.71
2018-03-16T20:31:49.015Z,9.85
2018-03-16T20:34:17.630Z,9.59
2018-03-16T20:36:47.028Z,9.52
2018-03-16T20:39:15.998Z,9.37
2018-03-16T20:41:45.347Z,9.26
2018-03-16T20:44:14.328Z,9.33
2018-03-16T20:46:43.871Z,9.35
2018-03-16T20:49:13.916Z,9.28
2018-03-16T20:51:42.571Z,9.27
2018-03-16T20:54:11.834Z,9.20
2018-03-16T20:56:40.516Z,9.25
2018-03-16T20:59:09.096Z,9.17
2018-03-16T21:01:37.884Z,9.28
2018-03-16T21:04:06.611Z,9.04
2018-03-16T21:06:35.471Z,9.04
2018-03-16T21:09:04.966Z,9.10
2018-03-16T21:11:33.802Z,8.95
2018-03-16T21:14:03.002Z,8.98
2018-03-16T21:16:31.798Z,9.08
2018-03-16T21:19:01.512Z,9.15
2018-03-16T21:21:30.161Z,9.17
2018-03-16T21:23:58.799Z,9.13
2018-03-16T21:26:27.288Z,9.20
2018-03-16T21:28:55.722Z,9.18
2018-03-16T21:31:24.234Z,9.15
2018-03-16T21:33:53.214Z,9.16
2018-03-16T21:36:23.507Z,9.11
2018-03-16T21:38:54.202Z,9.12
2018-03-16T21:41:22.979Z,8.96
2018-03-16T21:43:51.848Z,8.95
2018-03-16T21:46:20.518Z,8.86
2018-03-16T21:48:49.357Z,8.90
2018-03-16T21:51:18.923Z,8.87
2018-03-16T21:53:47.523Z,8.91
2018-03-16T21:56:17.524Z,8.67
2018-03-16T21:58:46.165Z,8.45
2018-03-16T22:01:15.542Z,8.43
2018-03-16T22:03:44.259Z,8.41
2018-03-16T22:06:12.856Z,8.24
2018-03-16T22:08:41.906Z,8.32
2018-03-16T22:11:10.482Z,8.28
2018-03-16T22:13:38.919Z,8.18
2018-03-16T22:16:08.457Z,8.13
2018-03-16T22:18:37.031Z,8.11
2018-03-16T22:21:06.124Z,8.21
2018-03-16T22:23:34.841Z,8.21
2018-03-16T22:26:04.935Z,8.27
2018-03-16T22:28:33.688Z,8.22
2018-03-16T22:31:02.270Z,8.22
2018-03-16T22:33:31.254Z,8.08
2018-03-16T22:36:00.725Z,8.11
2018-03-16T22:38:29.353Z,8.08
2018-03-16T22:40:57.988Z,8.08
2018-03-16T22:43:26.417Z,8.08
2018-03-16T22:45:55.110Z,8.26
2018-03-16T22:48:23.645Z,8.12
2018-03-16T22:50:51.985Z,8.07
2018-03-16T22:53:20.267Z,7.79
2018-03-16T22:55:48.601Z,7.85
2018-03-16T22:58:16.880Z,7.83
2018-03-16T23:00:45.714Z,7.61
2018-03-16T23:03:13.977Z,7.64
2018-03-16T23:05:42.374Z,7.68
2018-03-16T23:08:11.490Z,7.60
2018-03-16T23:10:39.789Z,7.55
2018-03-16T23:13:08.151Z,7.58
2018-03-16T23:15:36.511Z,7.53
2018-03-16T23:18:05.764Z,7.46
2018-03-16T23:20:34.218Z,7.29
2018-03-16T23:23:02.479Z,7.28
2018-03-16T23:25:30.931Z,7.30
2018-03-16T23:27:59.994Z,7.27
2018-03-16T23:30:28.476Z,7.25
2018-03-16T23:32:56.807Z,7.27
2018-03-16T23:35:25.281Z,7.20
2018-03-16T23:37:53.816Z,7.32
2018-03-16T23:40:22.133Z,7.34
2018-03-16T23:42:51.193Z,7.34
2018-03-16T23:45:19.561Z,7.29
2018-03-16T23:47:47.888Z,7.07
2018-03-16T23:50:17.320Z,7.05
2018-03-16T23:52:45.604Z,7.06
2018-03-16T23:55:13.901Z,6.97
2018-03-16T23:57:42.154Z,7.00
